createdAt,value
2024-03-15T00:00:38.530Z,0.66
2024-03-15T00:03:12.298Z,0.61
2024-03-15T00:05:44.807Z,0.63
2024-03-15T00:08:17.768Z,0.60
2024-03-15T00:10:49.899Z,0.55
2024-03-15T00:13:22.318Z,0.53
2024-03-15T00:15:54.636Z,0.52
2024-03-15T00:18:28.096Z,0.51
2024-03-15T00:21:00.627Z,0.50
2024-03-15T00:23:32.749Z,0.47
2024-03-15T00:26:05.328Z,0.49
2024-03-15T00:28:38.101Z,0.47
2024-03-15T00:31:10.481Z,0.44
2024-03-15T00:33:42.929Z,0.38
2024-03-15T00:36:18.503Z,0.33
2024-03-15T00:38:50.693Z,0.29
2024-03-15T00:41:24.214Z,0.24
2024-03-15T00:43:56.643Z,0.27
2024-03-15T00:46:28.910Z,0.29
2024-03-15T00:49:01.943Z,0.28
2024-03-15T00:51:36.177Z,0.28
2024-03-15T00:54:08.593Z,0.32
2024-03-15T00:56:40.834Z,0.27
2024-03-15T00:59:13.083Z,0.23
2024-03-15T01:01:45.814Z,0.21
2024-03-15T01:04:18.029Z,0.20
2024-03-15T01:06:50.269Z,0.20
2024-03-15T01:09:22.519Z,0.21
2024-03-15T01:11:55.044Z,0.18
2024-03-15T01:14:27.547Z,0.17
2024-03-15T01:16:59.965Z,0.12
2024-03-15T01:19:33.975Z,0.09
2024-03-15T01:22:06.389Z,0.08
2024-03-15T01:24:39.264Z,0.05
2024-03-15T01:27:11.862Z,0.01
2024-03-15T01:29:44.368Z,-0.02
2024-03-15T01:32:16.620Z,-0.04
2024-03-15T01:34:50.498Z,-0.02
2024-03-15T01:37:23.266Z,-0.05
2024-03-15T01:39:56.054Z,-0.08
2024-03-15T01:42:28.318Z,-0.11
2024-03-15T01:45:00.686Z,-0.12
2024-03-15T01:47:33.801Z,-0.08
2024-03-15T01:50:09.710Z,-0.08
2024-03-15T01:52:44.161Z,-0.10
2024-03-15T01:55:16.416Z,-0.12
2024-03-15T01:57:49.569Z,-0.10
2024-03-15T02:00:21.926Z,-0.15
2024-03-15T02:02:54.407Z,-0.16
2024-03-15T02:05:26.894Z,-0.17
2024-03-15T02:08:00.263Z,-0.17
2024-03-15T02:10:32.772Z,-0.17
2024-03-15T02:13:05.890Z,-0.17
2024-03-15T02:15:38.292Z,-0.15
2024-03-15T02:18:12.481Z,-0.14
2024-03-15T02:20:44.903Z,-0.13
2024-03-15T02:23:17.181Z,-0.12
2024-03-15T02:25:50.633Z,-0.10
2024-03-15T02:28:23.797Z,-0.11
2024-03-15T02:30:56.819Z,-0.07
2024-03-15T02:33:31.174Z,-0.06
2024-03-15T02:36:03.991Z,-0.06
2024-03-15T02:38:36.191Z,-0.05
2024-03-15T02:41:10.506Z,-0.06
2024-03-15T02:43:46.049Z,-0.06
2024-03-15T02:46:18.252Z,0.08
2024-03-15T02:48:51.422Z,-0.07
2024-03-15T02:51:25.347Z,-0.06
2024-03-15T02:53:58.029Z,-0.10
2024-03-15T02:56:30.675Z,-0.13
2024-03-15T02:59:03.338Z,-0.15
2024-03-15T03:01:36.946Z,-0.18
2024-03-15T03:04:09.746Z,-0.22
2024-03-15T03:06:44.048Z,-0.25
2024-03-15T03:09:23.053Z,-0.28
2024-03-15T03:11:57.850Z,-0.31
2024-03-15T03:14:30.917Z,-0.31
2024-03-15T03:17:07.870Z,-0.29
2024-03-15T03:19:40.424Z,-0.28
2024-03-15T03:22:14.281Z,-0.28
2024-03-15T03:24:48.087Z,-0.25
2024-03-15T03:27:21.059Z,-0.26
2024-03-15T03:29:54.155Z,-0.29
2024-03-15T03:32:26.814Z,-0.29
2024-03-15T03:34:59.780Z,-0.31
2024-03-15T03:37:36.152Z,-0.32
2024-03-15T03:40:17.207Z,-0.31
2024-03-15T03:42:50.216Z,-0.32
2024-03-15T03:45:24.492Z,-0.30
2024-03-15T03:47:58.602Z,-0.30
2024-03-15T03:50:31.037Z,-0.26
2024-03-15T03:53:03.121Z,-0.22
2024-03-15T03:55:35.941Z,-0.21
2024-03-15T03:58:08.704Z,-0.16
2024-03-15T04:00:42.226Z,-0.14
2024-03-15T04:03:15.026Z,-0.13
2024-03-15T04:05:48.910Z,-0.10
2024-03-15T04:08:21.573Z,-0.08
2024-03-15T04:10:56.392Z,0.00
2024-03-15T04:13:28.856Z,0.05
2024-03-15T04:16:03.362Z,0.11
2024-03-15T04:18:36.194Z,0.16
2024-03-15T04:21:12.302Z,0.22
2024-03-15T04:23:45.298Z,0.32
2024-03-15T04:26:18.608Z,0.41
2024-03-15T04:28:54.311Z,0.47
2024-03-15T04:31:27.874Z,0.55
2024-03-15T04:34:00.978Z,0.67
2024-03-15T04:36:35.829Z,0.74
2024-03-15T04:39:10.013Z,0.83
2024-03-15T04:41:42.896Z,0.92
2024-03-15T04:44:17.273Z,1.01
2024-03-15T04:46:52.152Z,1.09
2024-03-15T04:49:27.694Z,1.20
2024-03-15T04:52:00.957Z,1.28
2024-03-15T04:54:36.541Z,1.39
2024-03-15T04:57:09.906Z,1.47
2024-03-15T04:59:42.884Z,1.56
2024-03-15T05:02:17.283Z,1.67
2024-03-15T05:04:51.064Z,1.78
2024-03-15T05:07:25.107Z,1.90
2024-03-15T05:10:01.021Z,2.05
2024-03-15T05:12:36.044Z,2.36
2024-03-15T05:15:12.389Z,2.91
2024-03-15T05:17:46.584Z,3.38
2024-03-15T05:20:20.198Z,4.08
2024-03-15T05:22:54.350Z,4.45
2024-03-15T05:25:28.409Z,4.67
2024-03-15T05:28:02.395Z,4.79
2024-03-15T05:30:36.474Z,4.83
2024-03-15T05:33:10.116Z,5.14
2024-03-15T05:35:45.157Z,5.40
2024-03-15T05:38:18.476Z,5.80
2024-03-15T05:40:52.893Z,5.82
2024-03-15T05:43:27.045Z,5.71
2024-03-15T05:46:01.372Z,5.75
2024-03-15T05:48:34.420Z,6.22
2024-03-15T05:51:08.261Z,6.42
2024-03-15T05:53:41.821Z,6.44
2024-03-15T05:56:16.368Z,6.25
2024-03-15T05:58:49.046Z,6.10
2024-03-15T06:01:21.764Z,6.28
2024-03-15T06:03:54.776Z,6.24
2024-03-15T06:06:28.047Z,6.10
2024-03-15T06:09:02.383Z,5.99
2024-03-15T06:11:36.001Z,5.97
2024-03-15T06:14:11.290Z,6.12
2024-03-15T06:16:45.062Z,6.64
2024-03-15T06:19:17.845Z,7.36
2024-03-15T06:21:51.685Z,8.12
2024-03-15T06:24:24.483Z,8.57
2024-03-15T06:26:58.666Z,9.18
2024-03-15T06:29:37.962Z,9.54
2024-03-15T06:32:14.506Z,9.66
2024-03-15T06:34:50.949Z,9.94
2024-03-15T06:37:26.200Z,10.53
2024-03-15T06:40:01.005Z,11.19
2024-03-15T06:42:39.406Z,11.51
2024-03-15T06:45:17.065Z,12.10
2024-03-15T06:47:52.739Z,12.46
2024-03-15T06:50:27.635Z,12.28
2024-03-15T06:53:03.162Z,12.20
2024-03-15T06:55:36.662Z,12.46
2024-03-15T06:58:15.912Z,12.41
2024-03-15T07:00:47.197Z,12.01
2024-03-15T07:03:20.256Z,11.46
2024-03-15T07:05:54.276Z,10.91
2024-03-15T07:08:27.422Z,10.40
2024-03-15T07:11:01.411Z,9.80
2024-03-15T07:13:34.580Z,9.20
2024-03-15T07:16:10.753Z,8.63
2024-03-15T07:18:45.550Z,8.13
2024-03-15T07:21:20.071Z,7.77
2024-03-15T07:23:53.368Z,7.51
2024-03-15T07:26:27.588Z,7.28
2024-03-15T07:29:01.648Z,7.11
2024-03-15T07:31:35.202Z,7.01
2024-03-15T07:34:09.503Z,6.94
2024-03-15T07:36:43.189Z,7.09
2024-03-15T07:39:16.989Z,6.87
2024-03-15T07:41:51.652Z,6.83
2024-03-15T07:44:25.011Z,6.81
2024-03-15T07:46:58.916Z,6.81
2024-03-15T07:49:33.681Z,6.86
2024-03-15T07:52:07.737Z,6.89
2024-03-15T07:54:41.564Z,6.92
2024-03-15T07:57:15.125Z,6.97
2024-03-15T07:59:48.543Z,7.14
2024-03-15T08:02:21.319Z,7.09
2024-03-15T08:04:55.235Z,7.27
2024-03-15T08:07:30.289Z,7.21
2024-03-15T08:10:03.371Z,7.23
2024-03-15T08:12:36.949Z,7.27
2024-03-15T08:15:12.214Z,7.28
2024-03-15T08:17:48.381Z,7.30
2024-03-15T08:20:22.777Z,7.36
2024-03-15T08:23:01.541Z,7.38
2024-03-15T08:25:37.848Z,7.56
2024-03-15T08:28:15.217Z,7.48
2024-03-15T08:30:50.368Z,7.52
2024-03-15T08:33:25.696Z,7.55
2024-03-15T08:36:00.608Z,7.58
2024-03-15T08:38:35.445Z,7.63
2024-03-15T08:41:10.755Z,7.67
2024-03-15T08:43:47.466Z,7.73
2024-03-15T08:46:22.742Z,7.74
2024-03-15T08:48:55.862Z,7.74
2024-03-15T08:51:31.147Z,7.69
2024-03-15T08:54:06.405Z,7.85
2024-03-15T08:56:41.027Z,7.74
2024-03-15T08:59:15.411Z,7.76
2024-03-15T09:01:50.844Z,7.91
2024-03-15T09:04:27.622Z,7.96
2024-03-15T09:07:02.969Z,7.86
2024-03-15T09:09:36.408Z,7.81
2024-03-15T09:12:09.997Z,7.83
2024-03-15T09:14:45.116Z,7.82
2024-03-15T09:17:19.574Z,7.83
2024-03-15T09:19:54.159Z,8.00
2024-03-15T09:22:28.383Z,7.93
2024-03-15T09:25:02.520Z,7.99
2024-03-15T09:27:37.173Z,8.06
2024-03-15T09:30:12.855Z,8.11
2024-03-15T09:32:48.173Z,8.27
2024-03-15T09:35:33.844Z,8.65
2024-03-15T09:38:14.300Z,9.11
2024-03-15T09:40:48.272Z,9.54
2024-03-15T09:43:21.024Z,9.82
2024-03-15T09:45:55.812Z,10.08
2024-03-15T09:48:30.854Z,10.14
2024-03-15T09:51:16.898Z,10.37
2024-03-15T09:53:57.373Z,10.66
2024-03-15T09:56:33.744Z,10.95
2024-03-15T09:59:09.753Z,11.12
2024-03-15T10:01:45.035Z,11.16
2024-03-15T10:04:20.710Z,11.28
2024-03-15T10:06:55.317Z,11.41
2024-03-15T10:09:30.778Z,11.41
2024-03-15T10:12:04.873Z,11.41
2024-03-15T10:14:38.491Z,11.46
2024-03-15T10:17:15.326Z,11.54
2024-03-15T10:19:51.516Z,11.63
2024-03-15T10:22:28.077Z,11.62
2024-03-15T10:25:02.760Z,11.47
2024-03-15T10:27:36.614Z,11.38
2024-03-15T10:30:14.246Z,11.45
2024-03-15T10:35:43.792Z,11.82
2024-03-15T10:38:19.613Z,11.97
2024-03-15T10:40:53.837Z,12.01
2024-03-15T10:43:29.273Z,11.97
2024-03-15T10:46:06.945Z,11.86
2024-03-15T10:48:40.712Z,11.75
2024-03-15T10:51:16.375Z,11.81
2024-03-15T10:53:53.585Z,11.87
2024-03-15T10:56:28.821Z,11.89
2024-03-15T10:59:03.879Z,12.02
2024-03-15T11:01:37.797Z,12.17
2024-03-15T11:04:13.711Z,12.27
2024-03-15T11:06:48.255Z,12.32
2024-03-15T11:09:26.055Z,12.29
2024-03-15T11:12:06.147Z,12.24
2024-03-15T11:14:40.075Z,12.20
2024-03-15T11:17:14.452Z,12.10
2024-03-15T11:19:49.382Z,12.29
2024-03-15T11:22:26.299Z,11.92
2024-03-15T11:25:02.764Z,11.76
2024-03-15T11:27:55.152Z,11.65
2024-03-15T11:30:31.151Z,11.64
2024-03-15T11:33:05.637Z,11.64
2024-03-15T11:35:40.684Z,11.54
2024-03-15T11:38:15.629Z,11.46
2024-03-15T11:40:49.474Z,11.34
2024-03-15T11:43:23.450Z,11.28
2024-03-15T11:45:59.442Z,11.24
2024-03-15T11:48:34.674Z,11.19
2024-03-15T11:51:10.311Z,11.20
2024-03-15T11:53:43.114Z,11.16
2024-03-15T11:56:17.456Z,11.11
2024-03-15T11:58:50.968Z,11.09
2024-03-15T12:01:24.305Z,11.04
2024-03-15T12:03:59.653Z,11.02
2024-03-15T12:06:33.960Z,10.98
2024-03-15T12:09:10.337Z,10.94
2024-03-15T12:11:47.328Z,10.89
2024-03-15T12:14:20.292Z,10.83
2024-03-15T12:16:55.223Z,10.80
2024-03-15T12:19:30.650Z,10.74
2024-03-15T12:22:04.942Z,10.66
2024-03-15T12:24:38.379Z,10.58
2024-03-15T12:27:15.133Z,10.56
2024-03-15T12:29:49.629Z,10.45
2024-03-15T12:32:25.114Z,10.36
2024-03-15T12:34:59.189Z,10.28
2024-03-15T12:37:34.998Z,10.20
2024-03-15T12:40:12.525Z,10.11
2024-03-15T12:42:45.578Z,10.05
2024-03-15T12:45:19.299Z,9.90
2024-03-15T12:47:53.114Z,9.76
2024-03-15T12:50:27.898Z,9.69
2024-03-15T12:53:03.225Z,9.63
2024-03-15T12:55:36.858Z,9.58
2024-03-15T12:58:12.143Z,9.50
2024-03-15T13:00:46.804Z,9.43
2024-03-15T13:03:19.937Z,9.37
2024-03-15T13:05:53.971Z,9.32
2024-03-15T13:08:26.753Z,9.30
2024-03-15T13:11:00.715Z,9.46
2024-03-15T13:13:34.129Z,9.25
2024-03-15T13:16:09.030Z,9.21
2024-03-15T13:18:42.916Z,9.19
2024-03-15T13:21:16.985Z,9.17
2024-03-15T13:23:50.714Z,9.19
2024-03-15T13:26:25.434Z,9.14
2024-03-15T13:28:59.320Z,9.07
2024-03-15T13:31:32.872Z,8.97
2024-03-15T13:34:05.735Z,8.97
2024-03-15T13:36:38.643Z,8.95
2024-03-15T13:39:14.748Z,8.96
2024-03-15T13:41:54.181Z,8.97
2024-03-15T13:44:28.932Z,8.97
2024-03-15T13:47:03.284Z,8.93
2024-03-15T13:49:36.704Z,8.89
2024-03-15T13:52:11.991Z,8.86
2024-03-15T13:54:47.340Z,8.80
2024-03-15T13:57:21.147Z,8.79
2024-03-15T13:59:55.474Z,8.77
2024-03-15T14:02:30.359Z,8.79
2024-03-15T14:05:05.399Z,8.83
2024-03-15T14:07:39.305Z,8.87
2024-03-15T14:10:13.998Z,8.90
2024-03-15T14:12:50.310Z,8.94
2024-03-15T14:15:23.958Z,8.97
2024-03-15T14:17:58.386Z,8.90
2024-03-15T14:20:35.736Z,8.85
2024-03-15T14:23:10.413Z,9.04
2024-03-15T14:25:47.039Z,8.78
2024-03-15T14:28:19.664Z,8.69
2024-03-15T14:30:57.728Z,8.62
2024-03-15T14:33:29.513Z,8.54
2024-03-15T14:36:03.278Z,8.43
2024-03-15T14:38:38.209Z,8.33
2024-03-15T14:41:12.280Z,8.21
2024-03-15T14:43:44.305Z,8.35
2024-03-15T14:46:18.949Z,8.08
2024-03-15T14:48:52.737Z,7.99
2024-03-15T14:51:25.200Z,7.90
2024-03-15T14:53:59.722Z,7.85
2024-03-15T14:56:34.881Z,7.81
2024-03-15T14:59:09.016Z,7.75
2024-03-15T15:01:42.507Z,7.68
2024-03-15T15:04:19.273Z,7.64
2024-03-15T15:06:50.602Z,7.62
2024-03-15T15:09:24.654Z,7.54
2024-03-15T15:11:56.863Z,7.51
2024-03-15T15:14:30.713Z,7.67
2024-03-15T15:17:05.939Z,7.44
2024-03-15T15:19:41.379Z,7.37
2024-03-15T15:22:15.923Z,7.30
2024-03-15T15:24:55.673Z,7.25
2024-03-15T15:27:31.486Z,7.14
2024-03-15T15:30:04.558Z,7.07
2024-03-15T15:32:38.842Z,7.01
2024-03-15T15:35:13.745Z,6.95
2024-03-15T15:37:46.738Z,7.12
2024-03-15T15:40:21.655Z,6.87
2024-03-15T15:42:54.840Z,6.73
2024-03-15T15:45:35.667Z,6.62
2024-03-15T15:48:09.385Z,6.57
2024-03-15T15:50:43.850Z,6.45
2024-03-15T15:53:16.679Z,6.32
2024-03-15T15:55:49.328Z,6.18
2024-03-15T15:58:22.335Z,6.17
2024-03-15T16:00:55.494Z,6.01
2024-03-15T16:03:28.077Z,5.92
2024-03-15T16:06:01.127Z,5.84
2024-03-15T16:08:34.240Z,5.73
2024-03-15T16:11:07.199Z,5.61
2024-03-15T16:13:41.101Z,5.51
2024-03-15T16:16:13.998Z,5.43
2024-03-15T16:18:46.752Z,5.33
2024-03-15T16:21:20.562Z,5.28
2024-03-15T16:23:54.244Z,5.25
2024-03-15T16:26:29.075Z,5.25
2024-03-15T16:29:01.382Z,5.20
2024-03-15T16:31:34.587Z,5.19
2024-03-15T16:34:11.647Z,5.18
2024-03-15T16:36:45.003Z,5.16
2024-03-15T16:39:19.126Z,5.20
2024-03-15T16:41:52.175Z,5.21
2024-03-15T16:44:26.840Z,5.26
2024-03-15T16:47:00.239Z,5.28
2024-03-15T16:49:33.700Z,5.33
2024-03-15T16:52:07.406Z,5.31
2024-03-15T16:54:39.928Z,5.34
2024-03-15T16:57:12.574Z,5.34
2024-03-15T16:59:45.005Z,5.39
2024-03-15T17:02:17.747Z,5.41
2024-03-15T17:04:50.388Z,5.41
2024-03-15T17:07:23.514Z,5.40
2024-03-15T17:09:56.550Z,5.45
2024-03-15T17:12:29.524Z,5.49
2024-03-15T17:15:01.927Z,5.54
2024-03-15T17:17:36.119Z,5.60
2024-03-15T17:20:10.987Z,5.65
2024-03-15T17:22:43.864Z,5.67
2024-03-15T17:25:17.080Z,5.72
2024-03-15T17:27:49.275Z,5.77
2024-03-15T17:30:22.186Z,5.81
2024-03-15T17:32:55.784Z,5.86
2024-03-15T17:35:30.462Z,5.91
2024-03-15T17:38:04.048Z,5.95
2024-03-15T17:40:37.100Z,5.94
2024-03-15T17:43:12.282Z,5.94
2024-03-15T17:45:45.603Z,5.99
2024-03-15T17:48:18.745Z,5.97
2024-03-15T17:53:41.970Z,5.98
2024-03-15T17:56:15.065Z,5.98
2024-03-15T17:58:48.045Z,5.97
2024-03-15T18:01:22.425Z,5.98
2024-03-15T18:03:55.025Z,5.97
2024-03-15T18:06:27.804Z,6.01
2024-03-15T18:09:00.640Z,6.05
2024-03-15T18:11:33.162Z,6.02
2024-03-15T18:14:06.344Z,6.03
2024-03-15T18:16:39.173Z,6.01
2024-03-15T18:19:11.978Z,6.05
2024-03-15T18:21:44.817Z,6.03
2024-03-15T18:24:17.585Z,6.04
2024-03-15T18:26:50.861Z,6.02
2024-03-15T18:29:23.718Z,6.03
2024-03-15T18:31:56.528Z,6.05
2024-03-15T18:34:30.530Z,6.08
2024-03-15T18:37:04.578Z,6.07
2024-03-15T18:39:38.313Z,6.08
2024-03-15T18:42:11.750Z,6.11
2024-03-15T18:44:44.339Z,6.12
2024-03-15T18:47:17.278Z,6.13
2024-03-15T18:49:50.999Z,6.14
2024-03-15T18:52:23.580Z,6.15
2024-03-15T18:54:57.421Z,6.16
2024-03-15T18:57:29.772Z,6.13
2024-03-15T19:00:04.044Z,6.13
2024-03-15T19:02:38.568Z,6.09
2024-03-15T19:05:11.669Z,6.05
2024-03-15T19:07:45.189Z,6.05
2024-03-15T19:10:17.881Z,6.03
2024-03-15T19:12:51.832Z,5.99
2024-03-15T19:15:26.650Z,5.99
2024-03-15T19:17:59.567Z,5.97
2024-03-15T19:20:32.569Z,5.96
2024-03-15T19:23:08.719Z,5.93
2024-03-15T19:25:39.835Z,5.89
2024-03-15T19:28:12.658Z,5.85
2024-03-15T19:30:45.574Z,5.82
2024-03-15T19:33:18.367Z,5.83
2024-03-15T19:35:52.386Z,5.77
2024-03-15T19:38:25.441Z,5.75
2024-03-15T19:40:58.252Z,5.83
2024-03-15T19:43:30.500Z,5.79
2024-03-15T19:46:03.351Z,5.81
2024-03-15T19:48:38.440Z,5.76
2024-03-15T19:51:11.862Z,5.74
2024-03-15T19:53:44.605Z,5.74
2024-03-15T19:56:16.927Z,5.72
2024-03-15T19:58:50.529Z,5.73
2024-03-15T20:01:23.694Z,5.69
2024-03-15T20:03:56.279Z,5.68
2024-03-15T20:06:28.921Z,5.68
2024-03-15T20:09:02.087Z,5.65
2024-03-15T20:11:36.387Z,5.66
2024-03-15T20:14:09.791Z,5.65
2024-03-15T20:16:42.419Z,5.64
2024-03-15T20:19:15.746Z,5.64
2024-03-15T20:21:49.054Z,5.65
2024-03-15T20:24:23.272Z,5.64
2024-03-15T20:26:55.923Z,5.60
2024-03-15T20:29:29.485Z,5.59
2024-03-15T20:32:02.523Z,5.60
2024-03-15T20:34:35.057Z,5.58
2024-03-15T20:37:07.668Z,5.58
2024-03-15T20:39:42.962Z,5.55
2024-03-15T20:42:18.062Z,5.65
2024-03-15T20:44:50.930Z,5.59
2024-03-15T20:47:24.602Z,5.54
2024-03-15T20:49:58.000Z,5.52
2024-03-15T20:52:30.477Z,5.54
2024-03-15T20:55:06.410Z,5.49
2024-03-15T20:57:39.629Z,5.47
2024-03-15T21:00:14.397Z,5.46
2024-03-15T21:02:47.234Z,5.46
2024-03-15T21:05:19.918Z,5.47
2024-03-15T21:07:52.341Z,5.45
2024-03-15T21:10:24.499Z,5.46
2024-03-15T21:12:57.192Z,5.45
2024-03-15T21:15:32.100Z,5.46
2024-03-15T21:18:04.140Z,5.42
2024-03-15T21:20:36.641Z,5.39
2024-03-15T21:23:09.391Z,5.38
2024-03-15T21:25:41.897Z,5.39
2024-03-15T21:28:14.290Z,5.37
2024-03-15T21:30:48.491Z,5.37
2024-03-15T21:33:21.745Z,5.36
2024-03-15T21:35:55.746Z,5.40
2024-03-15T21:38:28.700Z,5.40
2024-03-15T21:41:02.579Z,5.40
2024-03-15T21:43:35.168Z,5.38
2024-03-15T21:46:09.076Z,5.40
2024-03-15T21:48:42.709Z,5.41
2024-03-15T21:51:15.943Z,5.40
2024-03-15T21:53:48.443Z,5.42
2024-03-15T21:56:21.862Z,5.36
2024-03-15T21:58:56.638Z,5.32
2024-03-15T22:01:31.072Z,5.31
2024-03-15T22:04:06.825Z,5.30
2024-03-15T22:06:43.930Z,5.31
2024-03-15T22:09:20.373Z,5.31
2024-03-15T22:11:51.462Z,5.31
2024-03-15T22:14:25.475Z,5.33
2024-03-15T22:16:58.060Z,5.33
2024-03-15T22:19:30.473Z,5.34
2024-03-15T22:22:04.320Z,5.34
2024-03-15T22:24:38.811Z,5.35
2024-03-15T22:27:09.623Z,5.51
2024-03-15T22:29:41.928Z,5.39
2024-03-15T22:32:14.590Z,5.38
2024-03-15T22:34:47.530Z,5.38
2024-03-15T22:37:20.417Z,5.34
2024-03-15T22:39:53.746Z,5.32
2024-03-15T22:42:26.724Z,5.29
2024-03-15T22:44:59.294Z,5.28
2024-03-15T22:47:34.159Z,5.24
2024-03-15T22:50:07.451Z,5.36
2024-03-15T22:52:40.554Z,5.13
2024-03-15T22:55:14.555Z,5.04
2024-03-15T22:57:48.673Z,5.01
2024-03-15T23:00:22.685Z,4.97
2024-03-15T23:02:55.175Z,4.94
2024-03-15T23:05:28.727Z,4.90
2024-03-15T23:08:02.195Z,4.86
2024-03-15T23:10:34.684Z,4.82
2024-03-15T23:13:10.792Z,4.77
2024-03-15T23:15:43.557Z,4.72
2024-03-15T23:18:16.676Z,4.69
2024-03-15T23:20:52.715Z,4.67
2024-03-15T23:23:26.624Z,4.61
2024-03-15T23:26:00.399Z,4.54
2024-03-15T23:28:32.946Z,4.46
2024-03-15T23:31:07.487Z,4.37
2024-03-15T23:33:43.796Z,4.30
2024-03-15T23:36:16.811Z,4.22
2024-03-15T23:38:49.225Z,4.14
2024-03-15T23:41:21.586Z,4.09
2024-03-15T23:43:55.202Z,4.03
2024-03-15T23:46:28.478Z,4.00
2024-03-15T23:49:01.538Z,4.00
2024-03-15T23:51:34.691Z,3.95
2024-03-15T23:54:07.537Z,3.93
2024-03-15T23:56:39.833Z,3.92
2024-03-15T23:59:12.279Z,3.90
